Time;durP1;ratioP1;P1;durP2;ratioP2;P2;SDS_P1;SDS_P2;PMS_P1;PMS_P2;Temp;Humidity;BMP_temperature;BMP_pressure;BME280_temperature;BME280_humidity;BME280_pressure;Samples;Min_cycle;Max_cycle;Signal;HPM_P1;HPM_P2
2022/11/26 00:00:46;;;;;;;23.17;18.17;;;;;21.00;101423.00;;;;2079735;28;20216;-49
2022/11/26 00:01:47;;;;;;;23.40;18.63;;;;;21.00;101427.00;;;;2079200;28;20210;-49
2022/11/26 00:02:47;;;;;;;22.83;18.33;;;;;21.00;101405.00;;;;2079566;28;20221;-50
2022/11/26 00:03:48;;;;;;;24.80;18.73;;;;;21.00;101434.00;;;;2079778;28;20263;-50
2022/11/26 00:04:49;;;;;;;22.07;18.00;;;;;21.00;101427.00;;;;2080064;28;20209;-50
2022/11/26 00:05:50;;;;;;;23.57;18.90;;;;;21.00;101429.00;;;;2079959;28;20449;-47
2022/11/26 00:06:50;;;;;;;22.20;17.05;;;;;21.00;101427.00;;;;2079609;28;20297;-50
2022/11/26 00:07:55;;;;;;;23.23;16.83;;;;;21.00;101428.00;;;;2078142;28;20225;-49
2022/11/26 00:08:55;;;;;;;21.90;17.92;;;;;21.00;101431.00;;;;2078728;28;20733;-50
2022/11/26 00:09:56;;;;;;;22.80;17.93;;;;;21.00;101431.00;;;;2079180;28;20292;-50
2022/11/26 00:10:56;;;;;;;21.83;16.80;;;;;21.00;101430.00;;;;2079289;28;20213;-51
2022/11/26 00:11:57;;;;;;;21.07;16.20;;;;;21.00;101427.00;;;;2077983;28;21008;-50
2022/11/26 00:12:57;;;;;;;21.67;15.97;;;;;21.00;101426.00;;;;2079708;28;20751;-50
2022/11/26 00:13:57;;;;;;;22.90;16.10;;;;;21.00;101441.00;;;;2079771;28;20681;-51
2022/11/26 00:14:59;;;;;;;19.53;14.70;;;;;21.00;101433.00;;;;2079790;28;20216;-48
2022/11/26 00:15:59;;;;;;;20.85;15.13;;;;;21.00;101434.00;;;;2079933;28;20221;-50
2022/11/26 00:16:59;;;;;;;20.53;14.77;;;;;21.00;101407.00;;;;2079486;28;20217;-50
2022/11/26 00:18:00;;;;;;;19.20;15.30;;;;;21.00;101436.00;;;;2079945;28;20217;-49
2022/11/26 00:19:00;;;;;;;18.80;14.93;;;;;21.00;101433.00;;;;2079903;28;20556;-50
2022/11/26 00:20:00;;;;;;;17.97;14.53;;;;;21.00;101429.00;;;;2079985;28;20630;-50
2022/11/26 00:21:01;;;;;;;19.90;14.60;;;;;20.90;101439.00;;;;2079880;28;20570;-50
2022/11/26 00:22:01;;;;;;;21.63;14.23;;;;;21.00;101443.00;;;;2078400;28;20802;-50
2022/11/26 00:23:03;;;;;;;21.17;14.53;;;;;20.90;101441.00;;;;2079507;28;20201;-50
2022/11/26 00:24:03;;;;;;;18.40;14.05;;;;;21.00;101441.00;;;;2084020;28;20706;-49
2022/11/26 00:25:04;;;;;;;21.47;14.80;;;;;21.00;101449.00;;;;2087981;28;20404;-50
2022/11/26 00:26:04;;;;;;;15.50;12.07;;;;;21.00;101450.00;;;;2087946;28;20554;-50
2022/11/26 00:27:04;;;;;;;19.13;14.70;;;;;20.90;101447.00;;;;2087362;28;20266;-49
2022/11/26 00:28:25;;;;;;;16.30;11.77;;;;;20.90;101452.00;;;;2087068;28;20256;-50
2022/11/26 00:29:25;;;;;;;17.20;12.57;;;;;20.90;101456.00;;;;2086695;28;20255;-50
2022/11/26 00:30:26;;;;;;;15.20;12.53;;;;;20.90;101458.00;;;;2087406;28;20664;-50
2022/11/26 00:31:27;;;;;;;16.53;12.00;;;;;20.90;101452.00;;;;2087983;28;20727;-50
2022/11/26 00:32:27;;;;;;;16.92;13.52;;;;;20.90;101462.00;;;;2086620;28;20466;-51
2022/11/26 00:33:28;;;;;;;14.30;12.53;;;;;20.90;101457.00;;;;2087722;28;20224;-50
2022/11/26 00:34:28;;;;;;;17.70;12.57;;;;;20.90;101463.00;;;;2087943;28;21141;-50
2022/11/26 00:35:28;;;;;;;18.00;12.20;;;;;20.90;101457.00;;;;2082875;28;20221;-50
2022/11/26 00:36:30;;;;;;;14.17;11.70;;;;;20.90;101460.00;;;;2078987;28;20690;-49
2022/11/26 00:37:34;;;;;;;17.15;12.70;;;;;20.90;101465.00;;;;2083840;28;20223;-51
2022/11/26 00:38:35;;;;;;;15.15;11.27;;;;;20.90;101466.00;;;;2086404;28;20217;-50
2022/11/26 00:39:35;;;;;;;17.60;11.67;;;;;20.90;101463.00;;;;2086927;28;20258;-50
2022/11/26 00:40:35;;;;;;;13.13;10.37;;;;;20.90;101461.00;;;;2087196;28;20217;-49
2022/11/26 00:41:39;;;;;;;14.90;11.40;;;;;20.90;101466.00;;;;2086721;28;20239;-50
2022/11/26 00:42:39;;;;;;;18.42;11.80;;;;;20.90;101460.00;;;;2086601;28;20320;-49
2022/11/26 00:43:40;;;;;;;16.23;11.43;;;;;20.90;101466.00;;;;2086299;28;20709;-51
2022/11/26 00:44:40;;;;;;;13.47;10.70;;;;;20.90;101457.00;;;;2080055;28;20603;-50
2022/11/26 00:45:41;;;;;;;13.63;11.00;;;;;20.90;101478.00;;;;2079520;28;20917;-52
2022/11/26 00:46:41;;;;;;;13.83;10.53;;;;;20.80;101468.00;;;;2085354;28;20701;-53
2022/11/26 00:47:41;;;;;;;13.70;11.60;;;;;20.80;101468.00;;;;2087822;28;20207;-51
2022/11/26 00:48:41;;;;;;;14.63;10.20;;;;;20.80;101469.00;;;;2087737;28;20213;-50
2022/11/26 00:49:42;;;;;;;16.30;11.20;;;;;20.90;101476.00;;;;2086653;28;20304;-50
2022/11/26 00:50:45;;;;;;;13.40;10.80;;;;;20.80;101461.00;;;;2079558;28;20218;-50
2022/11/26 00:51:45;;;;;;;13.40;10.68;;;;;20.80;101479.00;;;;2078418;28;20209;-50
2022/11/26 00:52:47;;;;;;;13.87;10.07;;;;;20.80;101479.00;;;;2077907;28;20201;-50
2022/11/26 00:53:47;;;;;;;15.40;10.45;;;;;20.90;101472.00;;;;2079265;28;20209;-50
2022/11/26 00:54:48;;;;;;;14.47;10.43;;;;;20.80;101477.00;;;;2078484;28;20210;-51
2022/11/26 00:55:48;;;;;;;15.23;10.50;;;;;20.80;101477.00;;;;2079881;28;20259;-49
2022/11/26 00:56:49;;;;;;;15.47;9.77;;;;;20.80;101481.00;;;;2078502;28;20218;-50
2022/11/26 00:57:49;;;;;;;13.73;9.53;;;;;20.80;101487.00;;;;2079437;28;20586;-50
2022/11/26 00:58:50;;;;;;;14.13;10.33;;;;;20.80;101482.00;;;;2079456;28;20213;-50
2022/11/26 00:59:50;;;;;;;13.37;9.93;;;;;20.80;101487.00;;;;2079312;28;20259;-48
2022/11/26 01:00:51;;;;;;;12.30;9.87;;;;;20.80;101491.00;;;;2079382;28;20252;-50
2022/11/26 01:01:51;;;;;;;14.20;9.77;;;;;20.80;101493.00;;;;2082611;28;20225;-50
2022/11/26 01:02:51;;;;;;;13.13;9.67;;;;;20.80;101493.00;;;;2086946;28;20295;-49
2022/11/26 01:03:52;;;;;;;12.57;9.33;;;;;20.80;101488.00;;;;2087475;28;20341;-50
2022/11/26 01:04:52;;;;;;;11.37;9.03;;;;;20.80;101497.00;;;;2087495;28;20219;-50
2022/11/26 01:05:53;;;;;;;14.17;9.40;;;;;20.80;101496.00;;;;2087415;28;20789;-50
2022/11/26 01:06:54;;;;;;;14.32;9.70;;;;;20.80;101508.00;;;;2087852;28;20248;-50
2022/11/26 01:07:54;;;;;;;10.97;8.80;;;;;20.70;101496.00;;;;2087244;28;20273;-50
2022/11/26 01:08:54;;;;;;;11.60;9.13;;;;;20.80;101503.00;;;;2085774;28;20224;-50
2022/11/26 01:09:55;;;;;;;11.60;8.30;;;;;20.80;101503.00;;;;2086227;28;20228;-50
2022/11/26 01:10:57;;;;;;;16.10;9.17;;;;;20.70;101511.00;;;;2086474;28;20244;-50
2022/11/26 01:11:57;;;;;;;13.48;9.43;;;;;20.70;101513.00;;;;2085750;28;20216;-50
2022/11/26 01:12:58;;;;;;;11.40;9.10;;;;;20.70;101510.00;;;;2087184;28;20688;-51
2022/11/26 01:13:58;;;;;;;12.57;8.77;;;;;20.80;101503.00;;;;2086716;28;20201;-50
2022/11/26 01:14:58;;;;;;;12.53;8.93;;;;;20.80;101516.00;;;;2087426;28;20263;-50
2022/11/26 01:15:59;;;;;;;11.10;8.50;;;;;20.70;101512.00;;;;2086624;28;20267;-50
2022/11/26 01:16:59;;;;;;;14.43;8.77;;;;;20.80;101511.00;;;;2080353;28;20256;-50
2022/11/26 01:18:00;;;;;;;11.10;8.00;;;;;20.80;101516.00;;;;2078404;28;21021;-50
2022/11/26 01:19:01;;;;;;;10.20;7.30;;;;;20.80;101521.00;;;;2078280;28;20724;-50
2022/11/26 01:20:01;;;;;;;12.43;8.80;;;;;20.80;101522.00;;;;2080548;28;20213;-50
2022/11/26 01:21:02;;;;;;;9.47;7.53;;;;;20.80;101524.00;;;;2086427;28;20460;-50
2022/11/26 01:22:02;;;;;;;11.53;8.93;;;;;20.80;101514.00;;;;2085912;28;20209;-50
2022/11/26 01:23:02;;;;;;;9.23;7.43;;;;;20.80;101516.00;;;;2086973;28;20712;-50
2022/11/26 01:24:03;;;;;;;11.77;7.70;;;;;20.80;101519.00;;;;2087171;28;20584;-50
2022/11/26 01:25:03;;;;;;;12.73;8.60;;;;;20.80;101512.00;;;;2087353;28;20711;-50
2022/11/26 01:26:04;;;;;;;11.27;7.60;;;;;20.80;101508.00;;;;2086934;28;20259;-49
2022/11/26 01:27:08;;;;;;;10.70;8.30;;;;;20.80;101519.00;;;;2086136;28;20222;-50
2022/11/26 01:28:10;;;;;;;10.23;7.57;;;;;20.70;101521.00;;;;2086118;28;20213;-50
2022/11/26 01:29:14;;;;;;;11.77;7.30;;;;;20.70;101516.00;;;;2079359;28;20226;-50
2022/11/26 01:30:25;;;;;;;10.38;7.15;;;;;20.70;101512.00;;;;2083700;28;20230;-50
2022/11/26 01:31:27;;;;;;;10.45;7.28;;;;;20.70;101511.00;;;;2087017;28;20215;-51
2022/11/26 01:32:27;;;;;;;12.15;8.00;;;;;20.70;101525.00;;;;2085652;28;20689;-50
2022/11/26 01:33:28;;;;;;;9.23;7.37;;;;;20.70;101527.00;;;;2087162;28;20235;-50
2022/11/26 01:34:28;;;;;;;12.50;7.67;;;;;20.70;101520.00;;;;2086916;28;20209;-51
2022/11/26 01:35:28;;;;;;;12.33;7.13;;;;;20.70;101526.00;;;;2086919;28;20216;-49
2022/11/26 01:36:30;;;;;;;10.87;7.13;;;;;20.70;101531.00;;;;2087405;28;20248;-50
2022/11/26 01:37:31;;;;;;;11.20;7.43;;;;;20.70;101523.00;;;;2087397;28;20221;-49
2022/11/26 01:38:31;;;;;;;14.07;7.40;;;;;20.70;101526.00;;;;2086795;28;20223;-50
2022/11/26 01:39:31;;;;;;;10.13;6.93;;;;;20.70;101530.00;;;;2087433;28;20224;-51
2022/11/26 01:40:40;;;;;;;14.23;7.10;;;;;20.70;101534.00;;;;2087346;28;20274;-50
2022/11/26 01:42:14;;;;;;;10.15;7.78;;;;;20.70;101532.00;;;;2086867;28;20224;-51
2022/11/26 01:43:30;;;;;;;10.85;7.25;;;;;20.70;101530.00;;;;2086363;28;20248;-49
2022/11/26 01:44:32;;;;;;;11.32;7.07;;;;;20.70;101530.00;;;;2086833;28;20634;-50
2022/11/26 01:45:33;;;;;;;10.18;6.65;;;;;20.70;101532.00;;;;2087420;28;20584;-49
2022/11/26 01:46:33;;;;;;;9.57;6.70;;;;;20.70;101529.00;;;;2087395;28;20212;-50
2022/11/26 01:47:33;;;;;;;12.00;6.30;;;;;20.60;101531.00;;;;2086561;28;20308;-50
2022/11/26 01:48:34;;;;;;;8.20;6.27;;;;;20.70;101535.00;;;;2086150;28;20279;-50
2022/11/26 01:49:34;;;;;;;12.33;7.90;;;;;20.70;101530.00;;;;2087297;28;20224;-50
2022/11/26 01:50:36;;;;;;;9.00;6.80;;;;;20.70;101536.00;;;;2087473;28;20254;-50
2022/11/26 01:51:37;;;;;;;9.25;6.55;;;;;20.70;101533.00;;;;2086088;28;20601;-50
2022/11/26 01:52:37;;;;;;;10.27;6.33;;;;;20.70;101535.00;;;;2085551;28;20213;-49
2022/11/26 01:53:44;;;;;;;11.83;7.03;;;;;20.60;101537.00;;;;2086384;28;20255;-50
2022/11/26 01:54:45;;;;;;;11.05;6.47;;;;;20.60;101536.00;;;;2085359;28;20705;-50
2022/11/26 01:55:50;;;;;;;10.77;6.77;;;;;20.60;101534.00;;;;2079386;28;20232;-50
2022/11/26 01:56:51;;;;;;;11.88;7.18;;;;;20.60;101528.00;;;;2083200;28;20693;-51
2022/11/26 01:57:51;;;;;;;8.45;6.10;;;;;20.60;101535.00;;;;2086658;28;20212;-49
2022/11/26 01:59:11;;;;;;;10.13;6.30;;;;;20.70;101530.00;;;;2086535;28;20401;-49
2022/11/26 02:00:12;;;;;;;10.30;7.38;;;;;20.60;101532.00;;;;2078719;28;20288;-50
2022/11/26 02:01:12;;;;;;;7.23;5.43;;;;;20.60;101532.00;;;;2079059;28;20221;-50
2022/11/26 02:02:13;;;;;;;10.03;5.37;;;;;20.60;101531.00;;;;2078062;28;20448;-50
2022/11/26 02:03:13;;;;;;;7.10;5.10;;;;;20.60;101527.00;;;;2078862;28;20217;-50
2022/11/26 02:04:19;;;;;;;11.20;6.17;;;;;20.60;101525.00;;;;2078415;28;20351;-50
2022/11/26 02:05:22;;;;;;;10.15;6.25;;;;;20.60;101524.00;;;;2078178;28;20670;-50
2022/11/26 02:06:25;;;;;;;9.10;6.20;;;;;20.60;101525.00;;;;2077361;28;20312;-48
2022/11/26 02:07:25;;;;;;;7.50;5.32;;;;;20.60;101524.00;;;;2077763;28;20217;-50
2022/11/26 02:08:27;;;;;;;10.17;6.53;;;;;20.60;101524.00;;;;2077739;28;20714;-50
2022/11/26 02:09:27;;;;;;;9.32;6.40;;;;;20.60;101524.00;;;;2077965;28;20229;-50
2022/11/26 02:10:28;;;;;;;8.17;5.70;;;;;20.60;101527.00;;;;2077901;28;20733;-50
2022/11/26 02:11:28;;;;;;;8.57;5.87;;;;;20.60;101535.00;;;;2078258;28;20264;-50
2022/11/26 02:12:28;;;;;;;8.57;6.17;;;;;20.60;101533.00;;;;2077407;28;20233;-48
2022/11/26 02:13:29;;;;;;;10.33;6.10;;;;;20.60;101530.00;;;;2078657;28;20206;-51
2022/11/26 02:14:37;;;;;;;9.33;6.43;;;;;20.60;101532.00;;;;2078529;28;20206;-50
2022/11/26 02:15:44;;;;;;;9.35;6.03;;;;;20.60;101528.00;;;;2077791;28;20205;-50
2022/11/26 02:16:58;;;;;;;11.38;6.35;;;;;20.60;101534.00;;;;2078034;28;20224;-50
2022/11/26 02:18:03;;;;;;;8.30;5.63;;;;;20.60;101529.00;;;;2076093;28;20220;-50
2022/11/26 02:19:23;;;;;;;9.98;5.80;;;;;20.60;101533.00;;;;2083274;28;20263;-49
2022/11/26 02:20:44;;;;;;;9.50;5.40;;;;;20.60;101530.00;;;;2084183;28;20282;-50
2022/11/26 02:21:46;;;;;;;8.50;5.45;;;;;20.60;101525.00;;;;2077516;28;20221;-50
2022/11/26 02:23:05;;;;;;;8.40;5.03;;;;;20.60;101522.00;;;;2070694;28;20218;-50
2022/11/26 02:24:30;;;;;;;9.75;5.18;;;;;20.60;101532.00;;;;2085899;28;20209;-50
2022/11/26 02:26:08;;;;;;;7.05;4.90;;;;;20.60;101543.00;;;;2085898;28;20676;-50
2022/11/26 02:27:45;;;;;;;9.13;5.90;;;;;20.60;101538.00;;;;2086600;28;20208;-50
2022/11/26 02:29:25;;;;;;;9.43;5.70;;;;;20.60;101536.00;;;;2080176;28;20215;-50
2022/11/26 02:30:26;;;;;;;8.48;5.18;;;;;20.60;101542.00;;;;2085202;28;20211;-50
2022/11/26 02:31:47;;;;;;;7.43;5.67;;;;;20.60;101523.00;;;;2077754;28;20243;-50
2022/11/26 02:33:04;;;;;;;7.80;5.72;;;;;20.60;101528.00;;;;2086092;28;20236;-50
2022/11/26 02:34:14;;;;;;;9.18;5.45;;;;;20.60;101514.00;;;;2085818;28;20212;-50
2022/11/26 02:35:17;;;;;;;11.35;6.10;;;;;20.60;101518.00;;;;2086318;28;20217;-50
2022/11/26 02:36:31;;;;;;;8.85;5.57;;;;;20.50;101531.00;;;;2078434;28;20214;-50
2022/11/26 02:37:53;;;;;;;8.05;4.97;;;;;20.50;101533.00;;;;2078229;28;20240;-50
2022/11/26 02:38:54;;;;;;;8.65;5.13;;;;;20.50;101535.00;;;;2075981;28;20220;-49
2022/11/26 02:39:55;;;;;;;8.13;5.17;;;;;20.50;101530.00;;;;2086098;28;20278;-50
2022/11/26 02:40:56;;;;;;;11.25;5.95;;;;;20.60;101535.00;;;;2087143;28;20232;-50
2022/11/26 02:41:58;;;;;;;7.97;5.00;;;;;20.50;101544.00;;;;2086214;28;20208;-49
2022/11/26 02:42:58;;;;;;;9.15;5.93;;;;;20.50;101536.00;;;;2086063;28;20209;-50
2022/11/26 02:43:59;;;;;;;8.10;5.67;;;;;20.50;101525.00;;;;2086240;28;20252;-50
2022/11/26 02:45:25;;;;;;;6.77;4.63;;;;;20.50;101530.00;;;;2086534;28;20200;-50
2022/11/26 02:46:25;;;;;;;7.60;5.00;;;;;20.50;101532.00;;;;2074845;28;20754;-51
2022/11/26 02:47:26;;;;;;;7.60;5.03;;;;;20.50;101533.00;;;;2086338;28;20216;-50
2022/11/26 02:48:31;;;;;;;9.33;5.10;;;;;20.50;101527.00;;;;2086518;28;20267;-49
2022/11/26 02:49:31;;;;;;;9.50;5.30;;;;;20.50;101518.00;;;;2078251;28;20249;-50
2022/11/26 02:50:38;;;;;;;7.27;4.70;;;;;20.50;101532.00;;;;2070703;28;20206;-50
2022/11/26 02:51:38;;;;;;;8.77;5.38;;;;;20.50;101527.00;;;;2071858;28;20300;-50
2022/11/26 02:52:39;;;;;;;9.43;5.13;;;;;20.60;101527.00;;;;2069670;28;20317;-50
2022/11/26 02:53:39;;;;;;;8.30;4.80;;;;;20.50;101514.00;;;;2060802;28;20219;-49
2022/11/26 02:54:40;;;;;;;8.50;4.50;;;;;20.50;101517.00;;;;2062547;28;20211;-50
2022/11/26 02:55:42;;;;;;;8.43;4.73;;;;;20.50;101510.00;;;;2070204;28;20218;-50
2022/11/26 02:56:42;;;;;;;5.75;4.03;;;;;20.50;101520.00;;;;2071285;28;20806;-51
2022/11/26 02:57:45;;;;;;;9.03;5.17;;;;;20.50;101515.00;;;;2062684;28;20302;-50
2022/11/26 02:58:47;;;;;;;7.88;5.50;;;;;20.50;101515.00;;;;2070815;28;20308;-50
2022/11/26 02:59:47;;;;;;;8.15;4.82;;;;;20.50;101507.00;;;;2071424;28;20340;-50
2022/11/26 03:00:48;;;;;;;7.07;4.70;;;;;20.50;101513.00;;;;2070774;28;20210;-50
2022/11/26 03:01:59;;;;;;;8.23;4.67;;;;;20.50;101515.00;;;;2061382;28;20250;-50
2022/11/26 03:03:07;;;;;;;6.20;4.60;;;;;20.50;101495.00;;;;2080550;28;20260;-50
2022/11/26 03:04:19;;;;;;;8.40;5.13;;;;;20.50;101516.00;;;;2083433;28;20223;-49
2022/11/26 03:05:19;;;;;;;7.78;4.20;;;;;20.50;101509.00;;;;2083955;28;20681;-49
2022/11/26 03:06:20;;;;;;;8.20;4.37;;;;;20.50;101515.00;;;;2087570;28;20775;-50
2022/11/26 03:07:20;;;;;;;8.67;4.90;;;;;20.50;101522.00;;;;2087769;28;20578;-50
2022/11/26 03:08:21;;;;;;;7.87;4.47;;;;;20.50;101510.00;;;;2087390;28;20562;-50
2022/11/26 03:09:21;;;;;;;6.63;4.17;;;;;20.50;101521.00;;;;2087572;28;20217;-50
2022/11/26 03:10:28;;;;;;;7.20;4.23;;;;;20.50;101521.00;;;;2079789;28;20606;-48
2022/11/26 03:11:28;;;;;;;6.22;4.22;;;;;20.50;101531.00;;;;2087710;28;20715;-49
2022/11/26 03:12:29;;;;;;;8.60;4.67;;;;;20.50;101517.00;;;;2087837;28;20217;-50
2022/11/26 03:13:29;;;;;;;8.43;4.37;;;;;20.50;101522.00;;;;2088604;28;20209;-50
2022/11/26 03:14:29;;;;;;;8.80;4.60;;;;;20.50;101526.00;;;;2088419;28;20215;-50
2022/11/26 03:15:30;;;;;;;7.83;4.37;;;;;20.50;101525.00;;;;2088653;28;20205;-50
2022/11/26 03:16:30;;;;;;;8.03;4.50;;;;;20.50;101524.00;;;;2088374;28;20217;-49
2022/11/26 03:17:30;;;;;;;9.30;4.27;;;;;20.50;101540.00;;;;2088425;28;20236;-50
2022/11/26 03:18:31;;;;;;;6.57;4.30;;;;;20.40;101538.00;;;;2085727;28;20229;-50
2022/11/26 03:19:31;;;;;;;8.83;4.40;;;;;20.40;101536.00;;;;2079990;28;20217;-49
2022/11/26 03:20:31;;;;;;;6.60;4.20;;;;;20.50;101540.00;;;;2080394;28;20205;-50
2022/11/26 03:21:32;;;;;;;7.23;5.00;;;;;20.40;101543.00;;;;2080327;28;20248;-50
2022/11/26 03:22:32;;;;;;;7.67;4.60;;;;;20.40;101542.00;;;;2079695;28;20213;-50
2022/11/26 03:23:33;;;;;;;7.90;4.70;;;;;20.40;101539.00;;;;2079952;28;20210;-48
2022/11/26 03:24:33;;;;;;;8.10;4.30;;;;;20.40;101542.00;;;;2080008;28;20217;-49
2022/11/26 03:25:33;;;;;;;7.90;4.23;;;;;20.40;101527.00;;;;2085434;28;20278;-49
2022/11/26 03:26:34;;;;;;;7.07;4.30;;;;;20.40;101534.00;;;;2088624;28;20213;-50
2022/11/26 03:27:34;;;;;;;7.10;4.73;;;;;20.40;101537.00;;;;2088289;28;20209;-55
2022/11/26 03:28:34;;;;;;;8.20;4.53;;;;;20.40;101537.00;;;;2088336;28;20705;-51
2022/11/26 03:29:35;;;;;;;7.40;4.60;;;;;20.40;101534.00;;;;2088257;28;20634;-50
2022/11/26 03:30:35;;;;;;;8.70;4.70;;;;;20.40;101529.00;;;;2088313;28;20208;-51
2022/11/26 03:31:35;;;;;;;7.53;4.37;;;;;20.40;101527.00;;;;2088256;28;20208;-52
2022/11/26 03:32:36;;;;;;;7.40;4.33;;;;;20.40;101528.00;;;;2087378;28;20215;-51
2022/11/26 03:33:36;;;;;;;7.27;4.20;;;;;20.40;101540.00;;;;2087644;28;20204;-52
2022/11/26 03:34:36;;;;;;;10.57;4.70;;;;;20.40;101534.00;;;;2087724;28;20256;-53
2022/11/26 03:35:37;;;;;;;7.73;4.10;;;;;20.40;101543.00;;;;2088226;28;20693;-52
2022/11/26 03:36:37;;;;;;;7.20;4.20;;;;;20.50;101541.00;;;;2088430;28;20757;-50
2022/11/26 03:37:37;;;;;;;6.10;5.00;;;;;20.40;101538.00;;;;2088358;28;20608;-49
2022/11/26 03:38:38;;;;;;;6.87;3.97;;;;;20.40;101543.00;;;;2087976;28;20750;-51
2022/11/26 03:39:38;;;;;;;7.43;4.60;;;;;20.40;101543.00;;;;2085784;28;20225;-50
2022/11/26 03:40:38;;;;;;;6.67;4.30;;;;;20.40;101545.00;;;;2079890;28;20209;-50
2022/11/26 03:41:42;;;;;;;8.37;4.43;;;;;20.40;101549.00;;;;2079771;28;20236;-51
2022/11/26 03:42:43;;;;;;;8.32;5.00;;;;;20.40;101549.00;;;;2077410;28;20206;-50
2022/11/26 03:43:43;;;;;;;6.60;4.10;;;;;20.40;101552.00;;;;2079922;28;20709;-49
2022/11/26 03:44:44;;;;;;;7.10;4.30;;;;;20.40;101552.00;;;;2079951;28;20760;-49
2022/11/26 03:45:44;;;;;;;7.40;4.13;;;;;20.40;101556.00;;;;2080120;28;20209;-50
2022/11/26 03:46:44;;;;;;;8.10;3.90;;;;;20.40;101550.00;;;;2079915;28;20240;-50
2022/11/26 03:47:45;;;;;;;7.17;4.53;;;;;20.40;101560.00;;;;2080163;28;21355;-50
2022/11/26 03:48:45;;;;;;;6.80;4.53;;;;;20.40;101569.00;;;;2080124;28;20671;-50
2022/11/26 03:49:45;;;;;;;6.40;3.70;;;;;20.40;101564.00;;;;2080179;28;20690;-50
2022/11/26 03:50:46;;;;;;;6.73;4.03;;;;;20.40;101559.00;;;;2079791;28;20213;-50
2022/11/26 03:51:46;;;;;;;5.03;3.87;;;;;20.40;101568.00;;;;2079742;28;20202;-49
2022/11/26 03:52:46;;;;;;;7.10;3.77;;;;;20.40;101563.00;;;;2079430;28;20213;-51
2022/11/26 03:53:47;;;;;;;6.50;4.43;;;;;20.40;101564.00;;;;2079824;28;20206;-50
2022/11/26 03:54:47;;;;;;;7.30;4.33;;;;;20.40;101565.00;;;;2085311;28;20290;-50
2022/11/26 03:55:47;;;;;;;7.00;4.20;;;;;20.40;101576.00;;;;2081612;28;20214;-49
2022/11/26 03:56:48;;;;;;;6.40;3.97;;;;;20.40;101568.00;;;;2079971;28;20217;-50
2022/11/26 03:57:48;;;;;;;5.43;3.90;;;;;20.40;101574.00;;;;2079985;28;20251;-50
2022/11/26 03:58:49;;;;;;;5.90;3.97;;;;;20.40;101578.00;;;;2079932;28;20247;-49
2022/11/26 03:59:49;;;;;;;6.53;4.30;;;;;20.30;101577.00;;;;2079760;28;20459;-49
2022/11/26 04:00:49;;;;;;;10.30;4.53;;;;;20.40;101572.00;;;;2079878;28;20200;-49
2022/11/26 04:01:50;;;;;;;9.27;4.53;;;;;20.30;101582.00;;;;2079195;28;20198;-49
2022/11/26 04:02:50;;;;;;;8.10;4.27;;;;;20.40;101584.00;;;;2084398;28;20490;-51
2022/11/26 04:03:50;;;;;;;5.00;3.90;;;;;20.30;101581.00;;;;2088062;28;20217;-51
2022/11/26 04:04:51;;;;;;;5.47;3.70;;;;;20.40;101584.00;;;;2088294;28;20221;-49
2022/11/26 04:05:51;;;;;;;7.10;3.83;;;;;20.30;101584.00;;;;2088453;28;20586;-49
2022/11/26 04:06:51;;;;;;;6.97;3.93;;;;;20.30;101592.00;;;;2087462;28;21212;-49
2022/11/26 04:07:52;;;;;;;7.53;4.13;;;;;20.40;101592.00;;;;2087902;28;20212;-51
2022/11/26 04:08:52;;;;;;;7.03;3.60;;;;;20.30;101590.00;;;;2088056;28;20235;-50
2022/11/26 04:09:52;;;;;;;8.23;4.37;;;;;20.30;101594.00;;;;2088382;28;20209;-49
2022/11/26 04:10:53;;;;;;;8.57;4.30;;;;;20.30;101588.00;;;;2088143;28;20217;-49
2022/11/26 04:11:53;;;;;;;7.50;4.13;;;;;20.30;101596.00;;;;2086986;28;20266;-47
2022/11/26 04:12:53;;;;;;;6.00;3.93;;;;;20.30;101593.00;;;;2087897;28;20217;-48
2022/11/26 04:13:54;;;;;;;5.63;3.60;;;;;20.30;101600.00;;;;2081358;28;20213;-49
2022/11/26 04:14:54;;;;;;;5.83;4.00;;;;;20.30;101598.00;;;;2080152;28;20213;-50
2022/11/26 04:15:54;;;;;;;6.80;3.90;;;;;20.30;101601.00;;;;2080070;28;20206;-49
2022/11/26 04:16:55;;;;;;;7.87;4.20;;;;;20.30;101597.00;;;;2078515;28;20241;-50
2022/11/26 04:17:55;;;;;;;6.77;4.10;;;;;20.30;101604.00;;;;2079833;28;20262;-50
2022/11/26 04:18:55;;;;;;;9.87;4.47;;;;;20.30;101605.00;;;;2079918;28;20213;-49
2022/11/26 04:19:56;;;;;;;4.93;3.67;;;;;20.30;101605.00;;;;2079775;28;20272;-48
2022/11/26 04:20:56;;;;;;;6.67;4.13;;;;;20.30;101603.00;;;;2080023;28;20208;-50
2022/11/26 04:21:56;;;;;;;6.50;3.80;;;;;20.30;101607.00;;;;2078660;28;20205;-50
2022/11/26 04:22:57;;;;;;;7.07;3.80;;;;;20.30;101614.00;;;;2079772;28;20236;-50
2022/11/26 04:23:57;;;;;;;6.37;3.47;;;;;20.30;101620.00;;;;2079363;28;20240;-50
2022/11/26 04:24:58;;;;;;;6.63;4.27;;;;;20.30;101615.00;;;;2079957;28;20580;-50
2022/11/26 04:25:58;;;;;;;10.33;5.00;;;;;20.30;101615.00;;;;2079913;28;20233;-50
2022/11/26 04:26:58;;;;;;;7.17;4.10;;;;;20.30;101615.00;;;;2079903;28;20206;-50
2022/11/26 04:27:59;;;;;;;4.90;3.97;;;;;20.30;101617.00;;;;2079397;28;20206;-50
2022/11/26 04:28:59;;;;;;;5.90;4.30;;;;;20.30;101615.00;;;;2079370;28;20245;-50
2022/11/26 04:29:59;;;;;;;6.70;4.07;;;;;20.30;101613.00;;;;2079559;28;20213;-51
2022/11/26 04:31:00;;;;;;;5.07;3.20;;;;;20.30;101609.00;;;;2079844;28;20325;-50
2022/11/26 04:32:00;;;;;;;6.40;4.50;;;;;20.30;101618.00;;;;2078736;28;20229;-50
2022/11/26 04:33:00;;;;;;;5.50;3.77;;;;;20.30;101627.00;;;;2080810;28;20271;-50
2022/11/26 04:34:00;;;;;;;6.43;3.60;;;;;20.30;101622.00;;;;2086147;28;20208;-49
2022/11/26 04:35:01;;;;;;;5.53;3.53;;;;;20.30;101621.00;;;;2079700;28;20236;-50
2022/11/26 04:36:01;;;;;;;6.40;4.23;;;;;20.30;101609.00;;;;2079726;28;20197;-49
2022/11/26 04:37:01;;;;;;;8.10;4.47;;;;;20.30;101614.00;;;;2079625;28;20216;-50
2022/11/26 04:38:02;;;;;;;5.83;4.00;;;;;20.30;101631.00;;;;2079455;28;20918;-50
2022/11/26 04:39:02;;;;;;;6.67;3.57;;;;;20.30;101630.00;;;;2085837;28;20688;-50
2022/11/26 04:40:03;;;;;;;7.73;4.10;;;;;20.30;101634.00;;;;2087750;28;20246;-49
2022/11/26 04:41:03;;;;;;;7.13;4.30;;;;;20.30;101632.00;;;;2087845;28;20212;-50
2022/11/26 04:42:03;;;;;;;6.67;4.37;;;;;20.30;101627.00;;;;2087088;28;20216;-49
2022/11/26 04:43:04;;;;;;;7.50;4.03;;;;;20.30;101637.00;;;;2086979;28;20688;-49
2022/11/26 04:44:04;;;;;;;7.03;4.00;;;;;20.30;101633.00;;;;2087729;28;20224;-50
2022/11/26 04:45:05;;;;;;;5.70;3.40;;;;;20.30;101643.00;;;;2087929;28;20278;-50
2022/11/26 04:46:05;;;;;;;6.40;4.13;;;;;20.30;101640.00;;;;2087918;28;20220;-49
2022/11/26 04:47:05;;;;;;;7.40;3.93;;;;;20.30;101639.00;;;;2088157;28;20220;-49
2022/11/26 04:48:06;;;;;;;7.70;3.90;;;;;20.30;101638.00;;;;2081546;28;20228;-49
2022/11/26 04:49:06;;;;;;;6.73;4.13;;;;;20.30;101645.00;;;;2083092;28;20256;-50
2022/11/26 04:50:07;;;;;;;8.03;3.53;;;;;20.20;101643.00;;;;2087624;28;20288;-50
2022/11/26 04:51:07;;;;;;;6.67;3.40;;;;;20.20;101650.00;;;;2087831;28;20644;-50
2022/11/26 04:52:08;;;;;;;7.63;4.03;;;;;20.30;101646.00;;;;2080814;28;20926;-50
2022/11/26 04:53:09;;;;;;;6.90;3.83;;;;;20.20;101651.00;;;;2079566;28;20220;-50
2022/11/26 04:54:09;;;;;;;7.37;4.70;;;;;20.30;101652.00;;;;2079457;28;20701;-50
2022/11/26 04:55:09;;;;;;;7.30;3.97;;;;;20.30;101654.00;;;;2082044;28;20223;-50
2022/11/26 04:56:10;;;;;;;8.23;4.13;;;;;20.30;101650.00;;;;2081594;28;20217;-49
2022/11/26 04:57:10;;;;;;;6.13;4.37;;;;;20.30;101657.00;;;;2079534;28;20213;-50
2022/11/26 04:58:10;;;;;;;9.60;3.60;;;;;20.30;101657.00;;;;2078274;28;20209;-50
2022/11/26 04:59:11;;;;;;;5.07;3.43;;;;;20.30;101655.00;;;;2080449;28;20213;-49
2022/11/26 05:00:12;;;;;;;9.87;3.97;;;;;20.30;101667.00;;;;2087933;28;20274;-50
2022/11/26 05:01:12;;;;;;;6.40;4.10;;;;;20.20;101663.00;;;;2084357;28;20209;-51
2022/11/26 05:02:12;;;;;;;6.67;4.13;;;;;20.20;101666.00;;;;2078882;28;20452;-49
2022/11/26 05:03:13;;;;;;;6.57;3.77;;;;;20.20;101633.00;;;;2079685;28;20217;-48
2022/11/26 05:04:13;;;;;;;5.50;3.63;;;;;20.20;101667.00;;;;2079275;28;20619;-49
2022/11/26 05:05:13;;;;;;;8.70;3.80;;;;;20.20;101668.00;;;;2079716;28;20216;-50
2022/11/26 05:06:14;;;;;;;8.23;3.80;;;;;20.20;101663.00;;;;2079312;28;20214;-49